Time;durP1;ratioP1;P1;durP2;ratioP2;P2;SDS_P1;SDS_P2;PMS_P1;PMS_P2;Temp;Humidity;BMP_temperature;BMP_pressure;BME280_temperature;BME280_humidity;BME280_pressure;Samples;Min_cycle;Max_cycle;Signal;HPM_P1;HPM_P2
2023/11/30 00:01:55;;;;;;;;;52.75;41.25;;;;;9.58;73.66;99715.84;5099002;27;45971;-72
2023/11/30 00:04:20;;;;;;;;;53.25;43.00;;;;;9.23;74.31;99657.03;5099521;27;45408;-72
2023/11/30 00:06:46;;;;;;;;;40.50;37.75;;;;;9.41;73.82;99693.47;5099093;27;45639;-72
2023/11/30 00:09:11;;;;;;;;;47.50;40.25;;;;;9.56;73.78;99721.25;5099116;27;52875;-72
2023/11/30 00:11:36;;;;;;;;;48.00;40.75;;;;;9.53;73.87;99710.72;5099451;27;45644;-73
2023/11/30 00:14:02;;;;;;;;;43.00;39.00;;;;;9.36;73.63;99679.50;5097971;27;46261;-72
2023/11/30 00:16:27;;;;;;;;;38.00;35.25;;;;;9.58;73.98;99716.72;5097264;27;45230;-72
2023/11/30 00:18:53;;;;;;;;;50.00;39.00;;;;;9.50;73.46;99694.00;5085252;27;45555;-72
2023/11/30 00:21:18;;;;;;;;;52.50;42.00;;;;;9.55;73.62;99697.34;5098673;27;46683;-72
2023/11/30 00:23:43;;;;;;;;;52.50;42.75;;;;;9.55;73.56;99694.66;5099766;27;45342;-72
2023/11/30 00:26:09;;;;;;;;;55.00;42.00;;;;;9.45;73.47;99683.56;5096740;27;45408;-72
2023/11/30 00:28:34;;;;;;;;;44.25;38.25;;;;;9.51;73.43;99687.75;5097287;27;58651;-72
2023/11/30 00:30:59;;;;;;;;;44.75;38.75;;;;;9.62;73.66;99705.00;5098643;27;45547;-72
2023/11/30 00:33:25;;;;;;;;;58.75;45.50;;;;;9.57;73.84;99691.00;5099201;27;45488;-72
2023/11/30 00:35:50;;;;;;;;;57.75;46.00;;;;;9.53;73.70;99686.75;5098897;27;45315;-72
2023/11/30 00:38:15;;;;;;;;;61.75;49.00;;;;;9.39;73.74;99662.53;5098311;27;63342;-72
2023/11/30 00:40:41;;;;;;;;;58.50;48.75;;;;;9.40;73.34;99669.56;5097743;27;45715;-72
2023/11/30 00:43:06;;;;;;;;;58.75;47.50;;;;;9.22;73.62;99641.97;5099146;27;45491;-72
2023/11/30 00:45:32;;;;;;;;;55.67;48.67;;;;;9.20;73.22;99639.38;5098194;27;55318;-72
2023/11/30 00:47:57;;;;;;;;;49.75;42.75;;;;;9.35;73.83;99660.94;5098049;27;45382;-72
2023/11/30 00:50:23;;;;;;;;;52.50;43.25;;;;;9.15;73.62;99621.88;5097888;27;46533;-72
2023/11/30 00:52:48;;;;;;;;;58.00;46.25;;;;;9.28;73.57;99652.34;5096187;27;45457;-72
2023/11/30 00:55:13;;;;;;;;;46.00;38.50;;;;;9.26;73.37;99654.22;5098951;27;45282;-72
2023/11/30 00:57:39;;;;;;;;;55.25;47.50;;;;;9.18;73.93;99648.38;5098761;27;47703;-72
2023/11/30 01:00:05;;;;;;;;;55.75;45.25;;;;;9.24;73.81;99664.94;5098281;27;46144;-73
2023/11/30 01:02:31;;;;;;;;;46.75;41.50;;;;;9.12;73.87;99643.31;5097284;27;45742;-72
2023/11/30 01:04:57;;;;;;;;;54.00;45.75;;;;;9.16;73.63;99642.25;5095021;27;45267;-72
2023/11/30 01:07:22;;;;;;;;;54.00;45.50;;;;;9.06;73.58;99624.00;5100809;27;45891;-72
2023/11/30 01:09:47;;;;;;;;;55.25;42.25;;;;;9.08;73.69;99629.28;5102170;27;45529;-72
2023/11/30 01:12:13;;;;;;;;;54.50;41.25;;;;;9.08;73.56;99632.78;5101981;27;45345;-72
2023/11/30 01:14:40;;;;;;;;;47.67;39.33;;;;;9.12;74.17;99644.19;5100291;27;55980;-72
2023/11/30 01:17:05;;;;;;;;;51.25;44.00;;;;;9.14;73.76;99639.66;5095804;27;45384;-72
2023/11/30 01:19:31;;;;;;;;;53.00;42.00;;;;;9.03;73.73;99623.28;5093854;27;69939;-72
2023/11/30 01:21:56;;;;;;;;;55.75;41.50;;;;;9.11;73.95;99634.47;5100773;27;56611;-72
2023/11/30 01:24:22;;;;;;;;;46.75;41.75;;;;;9.07;73.95;99630.19;5097369;27;45397;-72
2023/11/30 01:26:48;;;;;;;;;44.25;39.75;;;;;9.11;73.65;99634.47;5096979;27;45550;-71
2023/11/30 01:29:13;;;;;;;;;47.00;40.25;;;;;9.07;73.67;99622.19;5098993;27;46482;-72
2023/11/30 01:31:39;;;;;;;;;43.75;37.50;;;;;9.00;73.61;99615.44;5098985;27;45557;-72
2023/11/30 01:34:04;;;;;;;;;43.00;37.25;;;;;8.82;73.89;99585.16;5100725;27;45467;-72
2023/11/30 01:36:29;;;;;;;;;38.50;36.50;;;;;9.06;73.79;99629.34;5101442;27;45373;-72
2023/11/30 01:38:55;;;;;;;;;45.25;37.50;;;;;9.00;73.39;99628.75;5099980;27;58765;-72
2023/11/30 01:41:20;;;;;;;;;40.50;36.00;;;;;9.08;73.93;99643.44;5101328;27;47231;-72
2023/11/30 01:43:45;;;;;;;;;36.25;34.00;;;;;9.12;73.60;99640.63;5101990;27;45350;-72
2023/11/30 01:46:11;;;;;;;;;38.75;36.25;;;;;9.05;73.77;99626.72;5100918;27;45247;-72
2023/11/30 01:48:37;;;;;;;;;38.25;32.75;;;;;9.01;73.97;99611.84;5099828;27;47511;-72
2023/11/30 01:51:05;;;;;;;;;37.00;34.75;;;;;9.08;73.60;99621.28;5101394;27;45405;-72
2023/11/30 01:53:31;;;;;;;;;34.00;30.75;;;;;9.07;73.40;99625.75;5100019;27;45464;-72
2023/11/30 01:55:56;;;;;;;;;40.50;34.50;;;;;8.94;73.16;99613.91;5088043;27;45392;-72
2023/11/30 01:58:22;;;;;;;;;43.25;36.25;;;;;8.95;73.34;99618.28;5101178;27;46319;-72
2023/11/30 02:00:48;;;;;;;;;36.50;32.25;;;;;9.01;73.51;99631.34;5101321;27;45382;-72
2023/11/30 02:03:13;;;;;;;;;35.75;33.75;;;;;8.86;73.68;99595.59;5101326;27;45451;-72
2023/11/30 02:05:38;;;;;;;;;41.00;36.00;;;;;8.96;73.46;99613.84;5101328;27;45307;-72
2023/11/30 02:08:04;;;;;;;;;37.50;36.00;;;;;8.96;73.39;99612.03;5101012;27;45307;-72
2023/11/30 02:10:29;;;;;;;;;40.50;36.00;;;;;8.98;73.38;99609.31;5101254;27;45641;-72
2023/11/30 02:12:55;;;;;;;;;51.75;41.50;;;;;8.85;73.09;99606.31;5098683;27;45461;-72
2023/11/30 02:15:20;;;;;;;;;43.25;38.00;;;;;8.64;73.77;99581.53;5099559;27;56957;-72
2023/11/30 02:17:45;;;;;;;;;45.75;36.00;;;;;8.70;74.10;99610.50;5087795;27;46271;-72
2023/11/30 02:20:11;;;;;;;;;43.25;38.25;;;;;8.63;74.21;99609.91;5096763;27;60056;-72
2023/11/30 02:22:36;;;;;;;;;41.50;35.25;;;;;8.45;74.17;99574.31;5099888;27;45364;-72
2023/11/30 02:25:01;;;;;;;;;44.00;40.00;;;;;8.64;74.22;99584.19;5101085;27;45517;-72
2023/11/30 02:27:27;;;;;;;;;42.75;36.50;;;;;8.56;74.26;99568.53;5095939;27;47226;-72
2023/11/30 02:29:52;;;;;;;;;48.00;38.50;;;;;8.68;74.69;99599.91;5097088;27;45421;-72
2023/11/30 02:32:17;;;;;;;;;39.00;35.50;;;;;8.72;74.65;99611.31;5101222;27;45361;-72
2023/11/30 02:34:43;;;;;;;;;45.25;40.00;;;;;8.76;74.58;99612.06;5100728;27;45325;-72
2023/11/30 02:37:08;;;;;;;;;44.50;39.25;;;;;8.81;74.21;99608.25;5094640;27;47240;-72
2023/11/30 02:39:33;;;;;;;;;42.75;37.50;;;;;8.65;74.46;99576.13;5097387;27;47611;-72
2023/11/30 02:41:59;;;;;;;;;44.25;37.25;;;;;8.64;74.32;99569.06;5098419;27;58614;-72
2023/11/30 02:44:24;;;;;;;;;41.00;36.75;;;;;8.79;74.18;99586.16;5100307;27;45286;-72
2023/11/30 02:46:49;;;;;;;;;39.50;36.50;;;;;8.63;73.86;99556.69;5099573;27;51242;-72
2023/11/30 02:49:16;;;;;;;;;41.75;36.50;;;;;8.80;74.20;99577.22;5100525;27;45465;-71
2023/11/30 02:51:41;;;;;;;;;40.00;35.50;;;;;8.82;73.71;99570.06;5087031;27;45833;-71
2023/11/30 02:54:07;;;;;;;;;35.75;33.75;;;;;8.67;74.03;99544.13;5097756;27;45576;-72
2023/11/30 02:56:39;;;;;;;;;43.25;36.75;;;;;8.75;73.77;99543.78;5100447;27;45400;-72
2023/11/30 02:59:04;;;;;;;;;36.25;33.25;;;;;8.66;73.45;99535.28;5100399;27;45317;-72
2023/11/30 03:01:29;;;;;;;;;29.75;28.75;;;;;8.59;73.61;99527.66;5091576;27;45314;-72
2023/11/30 03:03:55;;;;;;;;;36.00;34.25;;;;;8.51;73.61;99518.19;5100163;27;45310;-72
2023/11/30 03:06:20;;;;;;;;;34.25;30.75;;;;;8.57;74.07;99529.50;5097483;27;68684;-72
2023/11/30 03:08:46;;;;;;;;;35.50;31.50;;;;;8.64;73.85;99545.13;5100312;27;45621;-72
2023/11/30 03:11:12;;;;;;;;;36.75;34.00;;;;;8.68;73.18;99560.00;5100503;27;45397;-72
2023/11/30 03:13:37;;;;;;;;;30.75;27.75;;;;;8.63;73.52;99566.47;5100099;27;45395;-72
2023/11/30 03:16:02;;;;;;;;;23.25;23.25;;;;;8.63;73.70;99566.47;5094964;27;47031;-72
2023/11/30 03:18:28;;;;;;;;;30.75;27.75;;;;;8.49;73.73;99546.66;5105742;27;45449;-72
2023/11/30 03:20:53;;;;;;;;;35.00;30.50;;;;;8.59;74.03;99551.59;5090931;27;45447;-71
2023/11/30 03:23:18;;;;;;;;;29.75;27.50;;;;;8.52;73.20;99546.53;5098694;27;45389;-71
2023/11/30 03:25:45;;;;;;;;;32.50;29.00;;;;;8.42;73.52;99528.31;5099915;27;46517;-72
2023/11/30 03:28:11;;;;;;;;;33.25;29.75;;;;;8.43;73.97;99530.94;5097495;27;45322;-72
2023/11/30 03:30:36;;;;;;;;;29.75;27.75;;;;;8.48;73.71;99528.09;5098200;27;45592;-71
2023/11/30 03:33:01;;;;;;;;;32.50;25.25;;;;;8.50;74.17;99519.13;5098597;27;45311;-72
2023/11/30 03:35:27;;;;;;;;;31.00;29.00;;;;;8.53;73.48;99523.44;5098331;27;48301;-72
2023/11/30 03:37:52;;;;;;;;;34.50;31.00;;;;;8.34;73.91;99513.56;5099362;27;45348;-71
2023/11/30 03:40:17;;;;;;;;;33.75;29.25;;;;;8.32;73.87;99517.25;5098411;27;48479;-71
2023/11/30 03:42:42;;;;;;;;;33.50;29.25;;;;;8.22;73.91;99505.25;5098494;27;46077;-72
2023/11/30 03:45:08;;;;;;;;;34.50;32.25;;;;;8.21;74.05;99520.34;5097084;27;59591;-71
2023/11/30 03:47:33;;;;;;;;;35.00;32.25;;;;;7.89;73.86;99485.34;5099349;27;45364;-72
2023/11/30 03:49:59;;;;;;;;;31.50;26.75;;;;;8.05;74.23;99511.28;5094487;27;58051;-72
2023/11/30 03:52:24;;;;;;;;;23.25;21.75;;;;;8.12;73.83;99521.59;5094758;27;45317;-71
2023/11/30 03:54:49;;;;;;;;;36.50;33.25;;;;;8.13;74.06;99522.44;5096927;27;64964;-71
2023/11/30 03:57:14;;;;;;;;;28.50;25.00;;;;;8.06;74.03;99505.91;5098859;27;59734;-72
2023/11/30 03:59:40;;;;;;;;;30.50;27.25;;;;;7.94;74.13;99470.06;5098708;27;63063;-71
2023/11/30 04:02:05;;;;;;;;;28.00;27.00;;;;;8.06;73.97;99499.72;5097941;27;45314;-71
2023/11/30 04:04:30;;;;;;;;;31.25;28.50;;;;;8.01;74.07;99507.03;5099616;27;46347;-71
2023/11/30 04:06:56;;;;;;;;;28.50;27.25;;;;;8.07;74.58;99504.09;5098650;27;45479;-71
2023/11/30 04:09:21;;;;;;;;;24.75;23.75;;;;;8.02;73.64;99483.03;5099732;27;45266;-71
2023/11/30 04:11:46;;;;;;;;;25.75;23.00;;;;;8.10;74.14;99498.66;5097881;27;51897;-71
2023/11/30 04:14:12;;;;;;;;;32.00;27.75;;;;;7.95;73.62;99468.28;5086036;27;58108;-72
2023/11/30 04:16:37;;;;;;;;;29.75;26.50;;;;;7.84;73.61;99441.31;5094403;27;45370;-71
2023/11/30 04:19:03;;;;;;;;;33.25;29.00;;;;;8.12;73.69;99497.69;5088425;27;45412;-71
2023/11/30 04:21:28;;;;;;;;;25.00;23.25;;;;;8.08;73.52;99503.19;5097617;27;45506;-71
2023/11/30 04:23:53;;;;;;;;;26.75;24.50;;;;;8.12;74.04;99518.94;5098657;27;45539;-72
2023/11/30 04:26:19;;;;;;;;;32.50;27.25;;;;;8.09;73.86;99508.44;5098559;27;45448;-71
2023/11/30 04:28:44;;;;;;;;;25.00;23.00;;;;;8.13;74.03;99510.00;5097960;27;45349;-71
2023/11/30 04:31:09;;;;;;;;;22.25;19.75;;;;;8.08;74.14;99482.75;5098759;27;50661;-71
2023/11/30 04:33:35;;;;;;;;;27.50;26.50;;;;;8.15;73.90;99486.91;5097850;27;47418;-71
2023/11/30 04:36:00;;;;;;;;;36.50;26.50;;;;;8.15;74.15;99486.91;5097152;27;45412;-71
2023/11/30 04:38:26;;;;;;;;;35.00;28.00;;;;;8.20;73.70;99488.50;5096882;27;45760;-71
2023/11/30 04:40:51;;;;;;;;;26.75;26.75;;;;;8.16;73.98;99477.13;5099052;27;45532;-71
2023/11/30 04:43:16;;;;;;;;;28.00;27.25;;;;;8.23;73.76;99477.75;5102261;27;57235;-71
2023/11/30 04:45:41;;;;;;;;;34.50;30.25;;;;;8.20;72.89;99475.22;5105212;27;62552;-71
2023/11/30 04:48:07;;;;;;;;;30.75;24.00;;;;;8.15;73.15;99483.38;5101098;27;45337;-71
2023/11/30 04:50:32;;;;;;;;;24.75;24.25;;;;;8.09;73.56;99476.53;5102344;27;45251;-71
2023/11/30 04:52:57;;;;;;;;;32.25;30.00;;;;;7.94;73.85;99454.13;5099954;27;45425;-71
2023/11/30 04:55:23;;;;;;;;;32.75;26.00;;;;;8.00;73.89;99466.28;5102389;27;45316;-71
2023/11/30 04:57:48;;;;;;;;;28.50;25.50;;;;;8.18;73.67;99474.41;5102828;27;45594;-71
2023/11/30 05:00:14;;;;;;;;;26.75;26.25;;;;;8.08;73.79;99453.53;5086779;27;45458;-71
2023/11/30 05:02:49;;;;;;;;;28.50;27.25;;;;;8.13;73.43;99458.66;5099859;27;46863;-71
2023/11/30 05:05:14;;;;;;;;;27.00;24.75;;;;;8.15;73.27;99463.00;5100797;27;45677;-71
2023/11/30 05:07:40;;;;;;;;;22.00;21.25;;;;;8.23;73.42;99475.09;5101199;27;56496;-71
2023/11/30 05:10:05;;;;;;;;;30.75;30.75;;;;;8.02;73.06;99444.97;5101788;27;51058;-71
2023/11/30 05:12:31;;;;;;;;;31.25;26.00;;;;;8.15;73.46;99460.34;5100777;27;48194;-71
2023/11/30 05:14:56;;;;;;;;;28.00;28.00;;;;;8.09;73.13;99438.47;5101866;27;45397;-71
2023/11/30 05:17:21;;;;;;;;;26.50;20.25;;;;;7.87;72.74;99391.56;5100784;27;49277;-71
2023/11/30 05:19:47;;;;;;;;;26.00;25.75;;;;;8.05;72.36;99432.44;5101888;27;46158;-71
2023/11/30 05:22:12;;;;;;;;;23.50;23.25;;;;;7.98;72.84;99442.47;5101935;27;45314;-71
2023/11/30 05:24:37;;;;;;;;;22.25;20.00;;;;;8.02;72.86;99464.44;5101636;27;45477;-71
2023/11/30 05:27:03;;;;;;;;;30.50;23.00;;;;;7.96;72.75;99459.38;5100886;27;45410;-71
2023/11/30 05:29:28;;;;;;;;;26.75;24.00;;;;;7.99;72.61;99469.88;5099888;27;45504;-71
2023/11/30 05:31:53;;;;;;;;;25.50;22.25;;;;;7.86;72.47;99466.88;5099621;27;57628;-71
2023/11/30 05:34:19;;;;;;;;;17.50;16.00;;;;;7.74;72.63;99462.06;5101736;27;45451;-71
2023/11/30 05:36:44;;;;;;;;;21.75;20.75;;;;;7.66;72.34;99464.19;5099873;27;45554;-71
2023/11/30 05:39:10;;;;;;;;;18.00;17.00;;;;;7.76;72.50;99484.97;5101623;27;46324;-71
2023/11/30 05:41:36;;;;;;;;;21.25;18.75;;;;;7.65;72.01;99475.72;5101578;27;45940;-71
2023/11/30 05:44:03;;;;;;;;;26.25;22.50;;;;;7.62;72.52;99487.34;5099917;27;45466;-71
2023/11/30 05:46:29;;;;;;;;;27.25;21.25;;;;;7.52;72.22;99464.75;5101855;27;45327;-71
2023/11/30 05:48:56;;;;;;;;;23.75;20.75;;;;;7.46;72.72;99454.34;5101518;27;45534;-71
2023/11/30 05:51:21;;;;;;;;;20.25;16.50;;;;;7.55;72.29;99468.13;5101493;27;46092;-71
2023/11/30 05:53:46;;;;;;;;;17.25;16.00;;;;;7.36;72.49;99443.25;5098756;27;45314;-71
2023/11/30 05:56:12;;;;;;;;;21.50;18.50;;;;;7.43;72.50;99458.00;5100988;27;45367;-71
2023/11/30 05:58:37;;;;;;;;;20.75;16.25;;;;;7.46;72.52;99476.47;5101298;27;45416;-71
2023/11/30 06:01:03;;;;;;;;;17.00;17.00;;;;;7.45;72.61;99465.91;5100743;27;45993;-71
2023/11/30 06:03:28;;;;;;;;;16.50;15.75;;;;;7.40;72.34;99447.47;5100888;27;45348;-71
2023/11/30 06:05:54;;;;;;;;;19.75;18.25;;;;;7.57;72.80;99468.06;5101227;27;45385;-71
2023/11/30 06:08:19;;;;;;;;;17.75;17.75;;;;;7.53;72.43;99461.16;5098274;27;45397;-71
2023/11/30 06:10:44;;;;;;;;;20.75;15.75;;;;;7.49;72.23;99440.97;5100534;27;65364;-71
2023/11/30 06:13:12;;;;;;;;;20.50;20.25;;;;;7.42;72.27;99438.53;5104215;27;45412;-71
2023/11/30 06:15:37;;;;;;;;;22.25;18.75;;;;;7.59;71.84;99459.09;5101338;27;45441;-71
2023/11/30 06:18:03;;;;;;;;;21.25;18.25;;;;;7.52;72.40;99446.16;5087211;27;45500;-71
2023/11/30 06:20:28;;;;;;;;;22.00;20.25;;;;;7.43;72.13;99420.81;5099094;27;45463;-71
2023/11/30 06:22:53;;;;;;;;;25.50;18.50;;;;;7.60;72.49;99438.72;5101156;27;45332;-71
2023/11/30 06:25:19;;;;;;;;;19.25;17.25;;;;;7.75;72.40;99458.47;5098705;27;71749;-71
2023/11/30 06:27:44;;;;;;;;;19.50;16.75;;;;;7.56;71.65;99419.38;5099437;27;45491;-71
2023/11/30 06:30:10;;;;;;;;;12.00;12.00;;;;;7.71;72.02;99438.28;5099177;27;45422;-72
2023/11/30 06:32:35;;;;;;;;;17.75;17.75;;;;;7.74;70.59;99454.97;5098920;27;45434;-64
2023/11/30 06:35:02;;;;;;;;;26.25;20.00;;;;;7.72;71.14;99456.81;5100517;27;45283;-64
2023/11/30 06:37:27;;;;;;;;;22.50;21.25;;;;;7.65;71.09;99438.53;5100230;27;45456;-65
2023/11/30 06:39:52;;;;;;;;;21.00;18.50;;;;;7.73;71.24;99455.03;5100463;27;45421;-64
2023/11/30 06:42:18;;;;;;;;;24.25;21.75;;;;;7.69;71.01;99456.94;5097308;27;61146;-65
2023/11/30 06:44:44;;;;;;;;;30.00;23.25;;;;;7.79;71.01;99473.38;5098578;27;45542;-64
2023/11/30 06:47:11;;;;;;;;;25.25;20.50;;;;;7.82;71.12;99464.41;5100337;27;45519;-71
2023/11/30 06:49:36;;;;;;;;;27.00;25.00;;;;;7.80;71.39;99464.44;5096204;27;48279;-72
2023/11/30 06:52:01;;;;;;;;;21.75;20.00;;;;;7.83;71.07;99456.38;5100361;27;45320;-72
2023/11/30 06:54:27;;;;;;;;;26.50;23.25;;;;;7.79;71.17;99449.47;5098801;27;45686;-72
2023/11/30 06:56:52;;;;;;;;;30.75;27.00;;;;;7.74;71.38;99441.69;5098728;27;45435;-72
2023/11/30 06:59:17;;;;;;;;;19.75;18.50;;;;;7.84;71.31;99459.91;5100341;27;46672;-72
2023/11/30 07:01:43;;;;;;;;;26.00;21.75;;;;;7.68;71.55;99436.59;5099809;27;48910;-72
2023/11/30 07:04:08;;;;;;;;;23.00;19.75;;;;;7.95;71.04;99478.91;5098626;27;45285;-72
2023/11/30 07:06:33;;;;;;;;;17.00;13.75;;;;;7.76;70.91;99441.63;5097936;27;47897;-72
2023/11/30 07:08:59;;;;;;;;;22.00;16.25;;;;;7.87;70.70;99457.97;5099466;27;46265;-72
2023/11/30 07:11:24;;;;;;;;;23.75;22.50;;;;;7.88;70.61;99461.50;5098791;27;45376;-72
2023/11/30 07:13:50;;;;;;;;;20.75;20.50;;;;;7.52;70.95;99406.31;5096869;27;45313;-71
2023/11/30 07:16:15;;;;;;;;;22.25;20.50;;;;;7.56;70.53;99421.19;5098132;27;45534;-72
2023/11/30 07:18:40;;;;;;;;;17.25;15.25;;;;;7.69;70.75;99456.09;5092642;27;47259;-70
2023/11/30 07:21:13;;;;;;;;;25.75;21.75;;;;;7.69;70.80;99458.75;5090613;27;46497;-75
2023/11/30 07:23:38;;;;;;;;;22.00;22.00;;;;;7.56;71.02;99429.16;5096055;27;45706;-75
2023/11/30 07:26:13;;;;;;;;;32.25;26.75;;;;;7.60;71.20;99428.09;5097973;27;45306;-74
2023/11/30 07:28:39;;;;;;;;;29.75;27.50;;;;;7.71;71.39;99435.63;5095704;27;47396;-78
2023/11/30 07:31:05;;;;;;;;;22.00;22.00;;;;;7.73;70.83;99449.72;5099182;27;45297;-79
2023/11/30 07:33:30;;;;;;;;;22.00;20.75;;;;;7.72;70.69;99458.63;5100148;27;45398;-78
2023/11/30 07:35:56;;;;;;;;;19.00;18.75;;;;;7.62;70.82;99466.09;5099641;27;45290;-79
2023/11/30 07:38:21;;;;;;;;;22.25;22.00;;;;;7.65;70.64;99473.06;5099379;27;46652;-76
2023/11/30 07:40:47;;;;;;;;;18.25;17.25;;;;;7.63;71.11;99478.44;5098131;27;45407;-75
2023/11/30 07:43:12;;;;;;;;;19.25;18.50;;;;;7.60;71.18;99467.94;5096907;27;45406;-76
2023/11/30 07:45:38;;;;;;;;;21.25;18.25;;;;;7.62;71.36;99463.44;5097527;27;45410;-76
2023/11/30 07:48:04;;;;;;;;;9.25;6.00;;;;;7.63;70.92;99451.88;5098711;27;45512;-76
2023/11/30 07:50:29;;;;;;;;;17.25;17.00;;;;;7.67;70.92;99471.19;5097129;27;45484;-77
2023/11/30 07:52:54;;;;;;;;;18.00;16.50;;;;;7.39;70.24;99429.84;5099334;27;49559;-75
2023/11/30 07:55:20;;;;;;;;;18.00;16.75;;;;;7.45;70.66;99452.63;5099225;27;45349;-75
2023/11/30 07:57:45;;;;;;;;;15.50;14.50;;;;;7.49;70.44;99475.47;5096814;27;46943;-75
2023/11/30 08:00:11;;;;;;;;;18.25;17.50;;;;;7.48;70.59;99468.44;5098455;27;45463;-75
2023/11/30 08:02:37;;;;;;;;;16.00;15.75;;;;;7.37;70.56;99463.56;5098938;27;45340;-75
2023/11/30 08:05:05;;;;;;;;;19.50;19.00;;;;;7.40;70.28;99472.28;5096282;27;45452;-71
2023/11/30 08:07:30;;;;;;;;;22.75;16.50;;;;;7.33;70.75;99460.13;5094186;27;46239;-72
2023/11/30 08:09:55;;;;;;;;;20.25;19.00;;;;;7.40;70.96;99471.38;5098527;27;45480;-71
2023/11/30 08:12:21;;;;;;;;;19.25;17.25;;;;;7.41;70.94;99473.97;5099177;27;45377;-72
2023/11/30 08:14:46;;;;;;;;;16.75;13.25;;;;;7.49;70.36;99494.06;5097140;27;45480;-71
2023/11/30 08:17:12;;;;;;;;;16.75;14.75;;;;;7.30;70.86;99478.88;5095429;27;45519;-71
2023/11/30 08:19:37;;;;;;;;;17.00;15.00;;;;;7.58;70.94;99526.44;5090427;27;45710;-72
2023/11/30 08:22:03;;;;;;;;;18.25;11.50;;;;;7.44;70.95;99496.91;5102562;27;45417;-72
2023/11/30 08:24:29;;;;;;;;;21.75;19.75;;;;;7.53;70.96;99500.97;5102543;27;45334;-72
2023/11/30 08:26:54;;;;;;;;;20.75;16.25;;;;;7.56;70.53;99492.91;5102254;27;45569;-71
2023/11/30 08:29:19;;;;;;;;;22.00;19.25;;;;;7.61;70.61;99506.84;5099410;27;45383;-71
2023/11/30 08:31:45;;;;;;;;;22.50;21.50;;;;;7.61;70.92;99512.16;5099011;27;45933;-71
2023/11/30 08:34:10;;;;;;;;;20.25;17.75;;;;;7.62;70.66;99505.94;5100184;27;60504;-71
2023/11/30 08:36:36;;;;;;;;;19.00;18.25;;;;;7.63;70.74;99520.06;5103836;27;52071;-72
2023/11/30 08:39:03;;;;;;;;;17.50;16.00;;;;;7.63;70.78;99525.38;5102487;27;45439;-71
2023/11/30 08:41:28;;;;;;;;;14.25;14.25;;;;;7.64;70.90;99513.84;5101220;27;45484;-72
2023/11/30 08:43:54;;;;;;;;;22.00;18.75;;;;;7.41;70.65;99466.00;5100877;27;45559;-72
2023/11/30 08:46:19;;;;;;;;;25.25;20.25;;;;;7.56;70.89;99493.75;5101216;27;45419;-71
2023/11/30 08:48:45;;;;;;;;;15.25;13.00;;;;;7.74;70.26;99524.03;5100823;27;59023;-71
2023/11/30 08:51:11;;;;;;;;;20.25;18.25;;;;;7.48;70.51;99495.84;5101408;27;45296;-71
2023/11/30 08:53:36;;;;;;;;;21.75;17.50;;;;;7.70;70.42;99535.72;5100058;27;45720;-71
2023/11/30 08:56:02;;;;;;;;;23.75;18.50;;;;;7.66;70.76;99533.22;5101279;27;45331;-71
2023/11/30 08:58:27;;;;;;;;;24.75;24.50;;;;;7.54;70.76;99510.69;5100731;27;45434;-71
2023/11/30 09:00:52;;;;;;;;;20.75;20.25;;;;;7.47;70.83;99496.78;5096718;27;46908;-71
2023/11/30 09:03:18;;;;;;;;;22.00;19.50;;;;;7.72;70.10;99543.63;5107892;27;45438;-72
2023/11/30 09:05:43;;;;;;;;;27.50;19.00;;;;;7.63;70.49;99530.69;5100903;27;45456;-72
2023/11/30 09:08:09;;;;;;;;;27.25;25.75;;;;;7.57;70.85;99532.66;5101885;27;45483;-71
2023/11/30 09:10:34;;;;;;;;;24.50;22.25;;;;;7.69;70.87;99560.53;5100891;27;45390;-71
2023/11/30 09:13:02;;;;;;;;;22.50;21.50;;;;;7.68;70.55;99539.34;5101913;27;45361;-71
2023/11/30 09:15:28;;;;;;;;;19.00;19.00;;;;;7.73;70.68;99556.81;5101111;27;45256;-72
2023/11/30 09:17:56;;;;;;;;;20.50;18.75;;;;;7.65;70.38;99540.34;5097322;27;45439;-72
2023/11/30 09:20:22;;;;;;;;;22.00;18.25;;;;;7.71;70.54;99553.38;5101917;27;45358;-72
2023/11/30 09:22:48;;;;;;;;;21.00;21.00;;;;;7.55;70.04;99541.59;5101888;27;45401;-71
2023/11/30 09:25:13;;;;;;;;;17.50;17.00;;;;;7.59;70.53;99552.06;5101495;27;46958;-72
2023/11/30 09:27:38;;;;;;;;;16.75;15.75;;;;;7.51;69.70;99554.13;5100104;27;45345;-72
2023/11/30 09:30:04;;;;;;;;;21.00;16.75;;;;;7.41;69.77;99553.63;5099374;27;51769;-72
2023/11/30 09:32:30;;;;;;;;;18.75;15.75;;;;;7.30;70.15;99554.97;5101467;27;45431;-73
2023/11/30 09:34:55;;;;;;;;;16.00;16.00;;;;;7.31;70.28;99556.72;5102893;27;46450;-71
2023/11/30 09:37:20;;;;;;;;;17.75;16.50;;;;;7.28;70.33;99544.41;5099255;27;62853;-72
2023/11/30 09:39:46;;;;;;;;;19.75;19.00;;;;;7.29;70.06;99542.63;5101687;27;45430;-71
2023/11/30 09:42:15;;;;;;;;;20.00;18.25;;;;;7.34;70.10;99554.78;5094827;27;45478;-72
2023/11/30 09:44:43;;;;;;;;;18.75;16.00;;;;;7.27;70.26;99541.81;5099902;27;45555;-72
2023/11/30 09:47:09;;;;;;;;;23.25;20.00;;;;;7.29;70.36;99539.97;5101359;27;45426;-72
2023/11/30 09:49:34;;;;;;;;;23.75;21.00;;;;;7.19;70.50;99528.84;5101143;27;45398;-72
2023/11/30 09:52:00;;;;;;;;;29.00;23.00;;;;;7.24;70.18;99537.50;5082621;27;45656;-72
2023/11/30 09:54:25;;;;;;;;;20.50;17.75;;;;;7.26;70.61;99537.44;5099663;27;47182;-72
2023/11/30 09:56:50;;;;;;;;;16.50;15.75;;;;;7.11;70.09;99520.31;5101432;27;45405;-72
2023/11/30 09:59:16;;;;;;;;;21.25;16.75;;;;;7.16;70.08;99536.91;5100931;27;45436;-72
2023/11/30 10:01:42;;;;;;;;;24.00;19.50;;;;;7.19;70.11;99545.63;5094379;27;45434;-72
2023/11/30 10:04:15;;;;;;;;;18.75;17.75;;;;;7.24;69.64;99545.47;5100421;27;45485;-72
2023/11/30 10:06:42;;;;;;;;;17.00;16.25;;;;;7.07;70.30;99516.91;5099624;27;45782;-69
2023/11/30 10:09:10;;;;;;;;;16.25;16.00;;;;;7.09;69.12;99524.81;5099034;27;45266;-69
2023/11/30 10:11:36;;;;;;;;;25.00;23.75;;;;;7.21;70.00;99551.72;5101077;27;45675;-70
2023/11/30 10:14:01;;;;;;;;;17.75;16.50;;;;;7.27;69.98;99558.63;5100551;27;46588;-68
2023/11/30 10:16:26;;;;;;;;;16.75;16.75;;;;;7.16;69.59;99535.13;5099453;27;64741;-68
2023/11/30 10:18:52;;;;;;;;;23.25;21.25;;;;;7.23;70.31;99533.09;5089973;27;45499;-68
2023/11/30 10:21:17;;;;;;;;;18.75;16.25;;;;;7.34;70.23;99553.94;5098879;27;45564;-69
2023/11/30 10:23:44;;;;;;;;;21.25;21.25;;;;;7.37;69.59;99557.34;5100465;27;56579;-68
2023/11/30 10:26:15;;;;;;;;;15.25;12.75;;;;;7.40;69.65;99551.03;5085627;27;45951;-68
2023/11/30 10:28:41;;;;;;;;;13.25;11.00;;;;;7.19;69.27;99510.25;5100955;27;45337;-68
2023/11/30 10:31:08;;;;;;;;;21.00;20.00;;;;;7.20;69.22;99499.59;5098949;27;45622;-68
2023/11/30 10:33:38;;;;;;;;;24.50;19.75;;;;;7.24;69.86;99509.16;5099859;27;46164;-68
2023/11/30 10:36:05;;;;;;;;;16.25;15.00;;;;;7.23;69.32;99509.22;5099108;27;45291;-69
2023/11/30 10:38:33;;;;;;;;;13.50;12.50;;;;;7.25;69.29;99523.31;5099965;27;45353;-68
2023/11/30 10:41:22;;;;;;;;;15.50;13.25;;;;;7.35;68.95;99532.66;5098219;27;45553;-68
2023/11/30 10:43:51;;;;;;;;;23.50;16.25;;;;;7.35;68.94;99532.66;5098912;27;48238;-69
2023/11/30 10:46:18;;;;;;;;;19.00;16.50;;;;;7.31;69.25;99519.53;5087182;27;45351;-69
2023/11/30 10:48:43;;;;;;;;;11.00;11.00;;;;;7.39;69.12;99518.31;5100581;27;45555;-69
2023/11/30 10:51:12;;;;;;;;;17.25;15.50;;;;;7.46;68.88;99518.94;5098421;27;54496;-68
2023/11/30 10:54:07;;;;;;;;;30.00;20.25;;;;;7.46;69.66;99507.47;5098700;27;47414;-69
2023/11/30 10:56:33;;;;;;;;;20.25;19.50;;;;;7.49;69.67;99494.94;5100581;27;45686;-68
2023/11/30 10:58:59;;;;;;;;;20.75;17.00;;;;;7.53;69.21;99474.41;5098701;27;45364;-69
2023/11/30 11:01:26;;;;;;;;;20.75;17.50;;;;;7.60;68.97;99478.56;5100079;27;45605;-68
2023/11/30 11:03:56;;;;;;;;;22.25;16.75;;;;;7.68;69.01;99476.44;5098670;27;48162;-69
2023/11/30 11:06:26;;;;;;;;;17.50;16.75;;;;;7.77;68.21;99494.69;5100062;27;45699;-69
2023/11/30 11:09:05;;;;;;;;;21.25;18.25;;;;;7.82;68.49;99490.97;5097187;27;45468;-69
2023/11/30 11:11:31;;;;;;;;;17.50;15.50;;;;;7.82;68.28;99498.94;5094920;27;46303;-69
2023/11/30 11:13:56;;;;;;;;;21.25;18.00;;;;;7.83;68.34;99498.00;5098515;27;48160;-69
2023/11/30 11:16:44;;;;;;;;;13.00;13.00;;;;;7.74;67.80;99476.22;5096657;27;45353;-69
2023/11/30 11:19:09;;;;;;;;;19.00;14.25;;;;;7.80;68.10;99480.41;5089662;27;45333;-69